Hastings, Pennsylvania
Current Conditions -  °F | °C
As of 4:15 AM on Monday 20 Oct 2014 (Local Time) from KIDI Reporting Station
Broken Clouds Broken Clouds  
Wind Chill: 41°   Ceiling: 11000
Heat Index: 41°   Visibility: 10mi
Dew Point: 36°   Wind: 3mph
Humidity: 81%   Direction: 240°WSW
Pressure: 30.08"   Gusts: NA
Location:  40.67°N, 78.71°W
Report Text: KIDI 200815Z AUTO 24003KT 10SM BKN110 05/02 A3008 RMK A01
Loading
Personal Weather Stations






























Interactive Weather Map
Tropical Storm Tracking
New forecast layout! Learn more

10-Day Weather Forecast

Advertisements
Track Severe Weather on mobile